createdAt,value
2023-12-05T00:02:13.038Z,11.66
2023-12-05T00:05:21.023Z,11.02
2023-12-05T00:08:27.714Z,11.72
2023-12-05T00:11:33.978Z,11.90
2023-12-05T00:14:40.235Z,12.10
2023-12-05T00:17:46.729Z,11.88
2023-12-05T00:20:55.163Z,11.72
2023-12-05T00:24:01.592Z,10.30
2023-12-05T00:27:09.386Z,10.59
2023-12-05T00:30:17.094Z,11.97
2023-12-05T00:33:23.846Z,12.33
2023-12-05T00:36:31.499Z,11.78
2023-12-05T00:39:37.828Z,11.73
2023-12-05T00:42:44.325Z,10.84
2023-12-05T00:45:50.891Z,11.70
2023-12-05T00:48:57.314Z,11.52
2023-12-05T00:52:05.993Z,12.95
2023-12-05T00:55:12.290Z,12.31
2023-12-05T00:58:18.733Z,11.10
2023-12-05T01:01:25.244Z,12.32
2023-12-05T01:04:32.133Z,12.31
2023-12-05T01:07:40.306Z,12.73
2023-12-05T01:10:47.118Z,13.80
2023-12-05T01:13:53.624Z,12.37
2023-12-05T01:17:00.346Z,13.17
2023-12-05T01:20:10.390Z,13.79
2023-12-05T01:23:18.982Z,14.19
2023-12-05T01:26:25.438Z,13.31
2023-12-05T01:29:31.864Z,11.99
2023-12-05T01:32:38.649Z,12.85
2023-12-05T01:35:45.178Z,13.23
2023-12-05T01:38:53.095Z,13.66
2023-12-05T01:42:01.285Z,14.60
2023-12-05T01:45:10.151Z,13.82
2023-12-05T01:48:17.387Z,14.32
2023-12-05T01:51:23.886Z,13.17
2023-12-05T01:54:34.550Z,13.43
2023-12-05T01:57:41.094Z,14.09
2023-12-05T02:00:48.570Z,14.26
2023-12-05T02:03:55.440Z,14.47
2023-12-05T02:07:02.744Z,13.92
2023-12-05T02:10:12.020Z,14.51
2023-12-05T02:13:18.905Z,13.50
2023-12-05T02:16:32.808Z,14.27
2023-12-05T02:19:52.365Z,13.86
2023-12-05T02:23:24.422Z,14.43
2023-12-05T02:26:44.326Z,14.90
2023-12-05T02:29:53.777Z,14.46
2023-12-05T02:33:00.605Z,13.79
2023-12-05T02:36:18.714Z,13.67
2023-12-05T02:39:34.424Z,13.68
2023-12-05T02:42:41.940Z,13.68
2023-12-05T02:45:52.964Z,14.16
2023-12-05T02:49:15.176Z,13.44
2023-12-05T02:52:21.847Z,13.57
2023-12-05T02:55:28.257Z,13.54
2023-12-05T02:58:34.537Z,13.77
2023-12-05T03:01:42.916Z,13.52
2023-12-05T03:04:49.432Z,13.19
2023-12-05T03:07:56.114Z,13.19
2023-12-05T03:11:07.210Z,13.79
2023-12-05T03:14:16.567Z,13.71
2023-12-05T03:17:24.443Z,13.56
2023-12-05T03:20:31.150Z,12.63
2023-12-05T03:23:37.387Z,13.16
2023-12-05T03:26:43.971Z,12.06
2023-12-05T03:29:50.560Z,12.96
2023-12-05T03:32:58.535Z,12.46
2023-12-05T03:36:06.008Z,12.09
2023-12-05T03:39:12.900Z,12.63
2023-12-05T03:42:19.801Z,11.71
2023-12-05T03:45:26.704Z,13.40
2023-12-05T03:48:34.952Z,13.07
2023-12-05T03:51:41.545Z,12.75
2023-12-05T03:54:48.084Z,13.71
2023-12-05T03:57:54.917Z,13.92
2023-12-05T04:01:01.721Z,13.59
2023-12-05T04:04:09.752Z,13.23
2023-12-05T04:07:17.169Z,13.26
2023-12-05T04:10:25.078Z,14.07
2023-12-05T04:13:32.199Z,14.04
2023-12-05T04:16:38.724Z,13.98
2023-12-05T04:19:46.406Z,13.49
2023-12-05T04:22:53.023Z,13.40
2023-12-05T04:25:59.227Z,13.45
2023-12-05T04:29:05.728Z,14.44
2023-12-05T04:32:14.798Z,14.47
2023-12-05T04:35:22.605Z,14.53
2023-12-05T04:38:29.062Z,14.29
2023-12-05T04:41:36.981Z,14.20
2023-12-05T04:44:43.510Z,14.02
2023-12-05T04:47:50.215Z,14.02
2023-12-05T04:50:57.906Z,14.29
2023-12-05T04:54:04.820Z,13.62
2023-12-05T04:57:11.146Z,13.71
2023-12-05T05:00:18.558Z,14.17
2023-12-05T05:03:25.248Z,12.69
2023-12-05T05:06:33.102Z,13.61
2023-12-05T05:09:42.409Z,13.12
2023-12-05T05:12:49.023Z,13.18
2023-12-05T05:15:55.855Z,12.30
2023-12-05T05:19:02.958Z,13.21
2023-12-05T05:22:10.825Z,13.86
2023-12-05T05:25:17.809Z,12.62
2023-12-05T05:28:24.136Z,12.48
2023-12-05T05:31:30.444Z,11.06
2023-12-05T05:34:37.015Z,11.30
2023-12-05T05:37:45.194Z,11.30
2023-12-05T05:40:51.709Z,11.31
2023-12-05T05:43:57.951Z,11.25
2023-12-05T05:47:04.828Z,12.40
2023-12-05T05:50:13.150Z,13.29
2023-12-05T05:53:20.984Z,13.67
2023-12-05T05:56:27.796Z,13.60
2023-12-05T05:59:34.405Z,13.98
2023-12-05T06:02:41.366Z,14.39
2023-12-05T06:05:48.078Z,13.86
2023-12-05T06:08:56.812Z,14.26
2023-12-05T06:12:04.343Z,13.57
2023-12-05T06:15:11.487Z,13.09
2023-12-05T06:18:18.004Z,12.35
2023-12-05T06:21:24.427Z,13.73
2023-12-05T06:24:32.283Z,14.97
2023-12-05T06:27:38.721Z,13.87
2023-12-05T06:30:45.600Z,13.04
2023-12-05T06:33:52.787Z,13.78
2023-12-05T06:36:59.681Z,13.51
2023-12-05T06:40:09.069Z,13.71
2023-12-05T06:43:15.298Z,14.71
2023-12-05T06:46:21.986Z,14.50
2023-12-05T06:49:28.944Z,15.20
2023-12-05T06:52:35.465Z,14.06
2023-12-05T06:55:43.578Z,14.78
2023-12-05T06:58:50.137Z,13.05
2023-12-05T07:01:57.246Z,14.30
2023-12-05T07:05:06.412Z,14.24
2023-12-05T07:08:13.106Z,14.08
2023-12-05T07:11:21.306Z,14.66
2023-12-05T07:14:28.129Z,15.12
2023-12-05T07:17:34.832Z,13.86
2023-12-05T07:20:41.241Z,14.58
2023-12-05T07:23:55.202Z,14.76
2023-12-05T07:27:08.915Z,14.61
2023-12-05T07:30:16.306Z,15.30
2023-12-05T07:33:22.860Z,13.52
2023-12-05T07:36:29.448Z,14.19
2023-12-05T07:39:36.820Z,12.98
2023-12-05T07:42:45.483Z,13.62
2023-12-05T07:45:52.266Z,13.74
2023-12-05T07:48:58.946Z,12.82
2023-12-05T07:52:06.793Z,13.49
2023-12-05T07:55:13.689Z,13.47
2023-12-05T07:58:21.340Z,15.23
2023-12-05T08:01:27.929Z,14.59
2023-12-05T08:04:34.498Z,14.85
2023-12-05T08:07:41.285Z,14.56
2023-12-05T08:10:48.065Z,14.49
2023-12-05T08:13:56.092Z,14.58
2023-12-05T08:17:02.672Z,15.20
2023-12-05T08:20:10.375Z,14.94
2023-12-05T08:23:17.184Z,15.89
2023-12-05T08:26:23.742Z,15.27
2023-12-05T08:29:31.673Z,15.83
2023-12-05T08:32:38.449Z,15.16
2023-12-05T08:35:45.093Z,15.35
2023-12-05T08:38:51.830Z,15.06
2023-12-05T08:42:00.699Z,14.67
2023-12-05T08:45:12.349Z,14.88
2023-12-05T08:48:19.336Z,14.76
2023-12-05T08:51:26.285Z,14.48
2023-12-05T08:54:33.414Z,15.69
2023-12-05T08:57:40.467Z,15.88
2023-12-05T09:00:48.529Z,16.28
2023-12-05T09:03:56.919Z,15.01
2023-12-05T09:07:04.763Z,16.09
2023-12-05T09:10:11.816Z,14.54
2023-12-05T09:13:18.417Z,16.23
2023-12-05T09:16:26.506Z,16.17
2023-12-05T09:19:33.411Z,15.35
2023-12-05T09:22:40.436Z,15.09
2023-12-05T09:25:46.980Z,16.41
2023-12-05T09:28:53.438Z,16.71
2023-12-05T09:32:01.609Z,16.55
2023-12-05T09:35:09.272Z,16.23
2023-12-05T09:38:16.008Z,16.43
2023-12-05T09:41:23.132Z,15.94
2023-12-05T09:44:31.065Z,14.80
2023-12-05T09:47:41.320Z,15.88
2023-12-05T09:50:48.597Z,13.74
2023-12-05T09:53:57.527Z,16.65
2023-12-05T09:57:04.698Z,16.19
2023-12-05T10:00:12.434Z,16.35
2023-12-05T10:03:22.017Z,14.16
2023-12-05T10:06:28.870Z,16.38
2023-12-05T10:09:35.909Z,16.91
2023-12-05T10:12:43.319Z,16.36
2023-12-05T10:15:50.186Z,16.20
2023-12-05T10:18:59.006Z,16.06
2023-12-05T10:22:06.100Z,14.29
2023-12-05T10:25:16.210Z,15.21
2023-12-05T10:28:22.878Z,15.62
2023-12-05T10:31:29.712Z,17.56
2023-12-05T10:34:50.563Z,15.29
2023-12-05T10:37:57.553Z,15.23
2023-12-05T10:41:04.026Z,15.93
2023-12-05T10:44:10.594Z,16.63
2023-12-05T10:47:19.907Z,16.60
2023-12-05T10:50:28.356Z,17.60
2023-12-05T10:53:37.138Z,16.25
2023-12-05T10:56:58.439Z,17.44
2023-12-05T11:00:07.619Z,17.12
2023-12-05T11:03:16.084Z,17.28
2023-12-05T11:06:27.000Z,16.54
2023-12-05T11:09:33.180Z,16.95
2023-12-05T11:12:42.197Z,16.64
2023-12-05T11:15:52.526Z,16.80
2023-12-05T11:19:13.486Z,16.93
2023-12-05T11:22:28.961Z,17.16
2023-12-05T11:25:49.723Z,17.43
2023-12-05T11:29:17.227Z,16.22
2023-12-05T11:32:35.555Z,15.96
2023-12-05T11:36:03.059Z,17.36
2023-12-05T11:39:12.342Z,16.35
2023-12-05T11:42:20.578Z,16.77
2023-12-05T11:45:27.481Z,16.26
2023-12-05T11:48:35.054Z,16.01
2023-12-05T11:51:41.727Z,17.86
2023-12-05T11:54:50.656Z,16.68
2023-12-05T11:57:57.268Z,16.88
2023-12-05T12:01:05.501Z,16.70
2023-12-05T12:04:20.525Z,15.97
2023-12-05T12:07:27.677Z,16.27
2023-12-05T12:10:35.873Z,18.03
2023-12-05T12:13:44.685Z,17.93
2023-12-05T12:16:52.607Z,16.94
2023-12-05T12:19:59.527Z,17.84
2023-12-05T12:23:06.474Z,18.34
2023-12-05T12:26:15.442Z,19.41
2023-12-05T12:29:22.645Z,17.36
2023-12-05T12:32:29.445Z,17.58
2023-12-05T12:35:36.355Z,17.88
2023-12-05T12:38:43.706Z,17.99
2023-12-05T12:41:52.100Z,18.33
2023-12-05T12:44:58.487Z,18.66
2023-12-05T12:48:05.854Z,18.27
2023-12-05T12:51:13.384Z,17.77
2023-12-05T12:54:20.597Z,17.83
2023-12-05T12:57:28.407Z,18.13
2023-12-05T13:00:38.576Z,17.73
2023-12-05T13:03:46.523Z,17.57
2023-12-05T13:06:53.656Z,17.72
2023-12-05T13:10:00.769Z,16.28
2023-12-05T13:13:09.871Z,16.88
2023-12-05T13:16:16.715Z,16.47
2023-12-05T13:19:25.000Z,18.14
2023-12-05T13:22:31.953Z,16.68
2023-12-05T13:25:43.547Z,16.91
2023-12-05T13:28:53.912Z,15.62
2023-12-05T13:32:00.835Z,16.26
2023-12-05T13:35:09.666Z,16.71
2023-12-05T13:38:16.443Z,16.19
2023-12-05T13:41:22.896Z,16.08
2023-12-05T13:44:30.702Z,16.86
2023-12-05T13:47:37.040Z,15.57
2023-12-05T13:50:43.600Z,15.43
2023-12-05T13:53:50.007Z,15.73
2023-12-05T13:56:56.622Z,15.84
2023-12-05T14:00:05.720Z,16.26
2023-12-05T14:03:12.347Z,16.04
2023-12-05T14:06:19.168Z,14.44
2023-12-05T14:09:26.124Z,15.55
2023-12-05T14:12:32.527Z,16.85
2023-12-05T14:15:40.819Z,16.74
2023-12-05T14:18:47.568Z,15.41
2023-12-05T14:21:55.414Z,15.63
2023-12-05T14:25:02.194Z,17.41
2023-12-05T14:28:09.246Z,15.78
2023-12-05T14:31:17.695Z,15.42
2023-12-05T14:34:24.329Z,16.21
2023-12-05T14:37:31.120Z,15.74
2023-12-05T14:40:37.821Z,15.19
2023-12-05T14:43:44.546Z,16.83
2023-12-05T14:46:52.609Z,15.89
2023-12-05T14:49:59.099Z,16.16
2023-12-05T14:53:05.799Z,17.15
2023-12-05T14:56:12.410Z,17.68
2023-12-05T14:59:19.025Z,16.74
2023-12-05T15:02:27.278Z,17.39
2023-12-05T15:05:34.264Z,17.58
2023-12-05T15:08:40.525Z,17.63
2023-12-05T15:11:47.476Z,16.66
2023-12-05T15:14:54.375Z,16.54
2023-12-05T15:18:01.999Z,17.85
2023-12-05T15:21:09.276Z,17.49
2023-12-05T15:24:15.909Z,17.09
2023-12-05T15:27:22.401Z,17.64
2023-12-05T15:30:28.770Z,17.00
2023-12-05T15:33:36.978Z,18.09
2023-12-05T15:36:43.744Z,17.41
2023-12-05T15:39:50.361Z,18.01
2023-12-05T15:42:57.221Z,17.34
2023-12-05T15:46:03.881Z,16.52
2023-12-05T15:49:12.119Z,16.75
2023-12-05T15:52:18.655Z,17.16
2023-12-05T15:55:26.508Z,17.94
2023-12-05T15:58:33.239Z,17.37
2023-12-05T16:01:40.024Z,16.17
2023-12-05T16:04:48.444Z,16.37
2023-12-05T16:07:55.275Z,15.76
2023-12-05T16:11:01.753Z,17.28
2023-12-05T16:14:08.748Z,17.74
2023-12-05T16:17:15.516Z,17.19
2023-12-05T16:20:23.716Z,16.51
2023-12-05T16:23:31.129Z,17.08
2023-12-05T16:26:40.879Z,17.71
2023-12-05T16:29:47.276Z,16.35
2023-12-05T16:32:54.262Z,17.65
2023-12-05T16:36:02.107Z,17.86
2023-12-05T16:39:08.883Z,17.14
2023-12-05T16:42:15.240Z,17.15
2023-12-05T16:45:25.966Z,16.98
2023-12-05T16:48:33.966Z,15.70
2023-12-05T16:51:41.890Z,16.34
2023-12-05T16:54:48.052Z,17.96
2023-12-05T16:57:54.910Z,16.86
2023-12-05T17:01:01.546Z,17.79
2023-12-05T17:04:07.921Z,18.00
2023-12-05T17:07:16.141Z,18.62
2023-12-05T17:10:22.730Z,18.07
2023-12-05T17:13:29.290Z,18.17
2023-12-05T17:16:35.866Z,18.15
2023-12-05T17:19:42.650Z,18.02
2023-12-05T17:22:51.388Z,17.28
2023-12-05T17:25:57.989Z,16.60
2023-12-05T17:29:04.676Z,16.49
2023-12-05T17:32:13.128Z,17.31
2023-12-05T17:35:19.864Z,17.92
2023-12-05T17:38:27.985Z,17.65
2023-12-05T17:41:35.297Z,17.04
2023-12-05T17:44:42.973Z,16.95
2023-12-05T17:47:49.809Z,17.35
2023-12-05T17:50:56.244Z,16.94
2023-12-05T17:54:04.475Z,17.38
2023-12-05T17:57:11.929Z,18.27
2023-12-05T18:00:19.080Z,17.32
2023-12-05T18:03:26.144Z,16.98
2023-12-05T18:06:32.756Z,17.30
2023-12-05T18:09:41.007Z,16.75
2023-12-05T18:12:47.899Z,17.07
2023-12-05T18:15:54.776Z,16.71
2023-12-05T18:19:07.069Z,18.14
2023-12-05T18:22:14.206Z,17.77
2023-12-05T18:25:23.800Z,17.35
2023-12-05T18:28:30.507Z,17.72
2023-12-05T18:31:36.901Z,17.38
2023-12-05T18:34:43.507Z,17.53
2023-12-05T18:37:50.255Z,17.80
2023-12-05T18:40:58.582Z,17.84
2023-12-05T18:44:04.928Z,17.44
2023-12-05T18:47:11.686Z,17.81
2023-12-05T18:50:19.070Z,18.12
2023-12-05T18:53:29.590Z,17.62
2023-12-05T18:56:37.632Z,17.44
2023-12-05T18:59:45.051Z,16.23
2023-12-05T19:02:52.062Z,17.24
2023-12-05T19:06:00.329Z,17.04
2023-12-05T19:09:07.181Z,17.12
2023-12-05T19:12:15.401Z,17.00
2023-12-05T19:15:24.127Z,17.48
2023-12-05T19:18:30.945Z,17.61
2023-12-05T19:21:37.812Z,17.75
2023-12-05T19:24:45.900Z,18.16
2023-12-05T19:27:55.422Z,17.99
2023-12-05T19:31:02.288Z,17.48
2023-12-05T19:34:09.267Z,16.28
2023-12-05T19:37:15.938Z,16.65
2023-12-05T19:40:22.464Z,17.50
2023-12-05T19:43:30.560Z,17.73
2023-12-05T19:46:37.407Z,17.27
2023-12-05T19:49:44.005Z,17.49
2023-12-05T19:52:54.143Z,16.11
2023-12-05T19:56:00.774Z,15.91
2023-12-05T19:59:09.207Z,17.04
2023-12-05T20:02:16.042Z,16.29
2023-12-05T20:05:22.848Z,15.85
2023-12-05T20:08:29.525Z,16.43
2023-12-05T20:11:36.412Z,16.17
2023-12-05T20:14:44.100Z,16.59
2023-12-05T20:17:50.741Z,15.93
2023-12-05T20:20:57.699Z,16.01
2023-12-05T20:24:04.988Z,16.12
2023-12-05T20:27:13.885Z,16.01
2023-12-05T20:30:22.622Z,16.06
2023-12-05T20:33:29.464Z,16.72
2023-12-05T20:36:36.138Z,16.61
2023-12-05T20:39:43.713Z,16.62
2023-12-05T20:42:50.312Z,16.15
2023-12-05T20:45:58.670Z,16.95
2023-12-05T20:49:05.351Z,16.36
2023-12-05T20:52:11.715Z,15.70
2023-12-05T20:55:18.142Z,14.99
2023-12-05T20:58:24.881Z,16.01
2023-12-05T21:01:33.289Z,15.36
2023-12-05T21:04:41.208Z,14.99
2023-12-05T21:07:48.334Z,16.20
2023-12-05T21:10:56.077Z,16.95
2023-12-05T21:14:03.483Z,16.61
2023-12-05T21:17:11.314Z,15.63
2023-12-05T21:20:20.528Z,15.87
2023-12-05T21:23:30.537Z,16.72
2023-12-05T21:26:36.976Z,16.61
2023-12-05T21:29:43.637Z,16.87
2023-12-05T21:32:51.661Z,16.87
2023-12-05T21:35:58.448Z,16.48
2023-12-05T21:39:05.237Z,17.17
2023-12-05T21:42:12.190Z,16.60
2023-12-05T21:45:19.494Z,17.05
2023-12-05T21:48:27.497Z,15.70
2023-12-05T21:51:35.852Z,16.57
2023-12-05T21:54:42.209Z,16.33
2023-12-05T21:57:48.737Z,16.70
2023-12-05T22:00:55.687Z,15.13
2023-12-05T22:04:03.811Z,15.69
2023-12-05T22:07:10.211Z,15.31
2023-12-05T22:10:17.443Z,15.97
2023-12-05T22:13:24.237Z,16.10
2023-12-05T22:16:31.055Z,16.09
2023-12-05T22:19:39.052Z,16.21
2023-12-05T22:22:45.443Z,15.93
2023-12-05T22:25:51.819Z,16.51
2023-12-05T22:28:58.645Z,16.34
2023-12-05T22:32:05.053Z,16.78
2023-12-05T22:35:13.323Z,16.86
2023-12-05T22:38:20.008Z,16.10
2023-12-05T22:41:26.757Z,16.29
2023-12-05T22:44:33.397Z,16.95
2023-12-05T22:47:40.094Z,16.43
2023-12-05T22:50:48.033Z,16.24
2023-12-05T22:53:54.128Z,16.92
2023-12-05T22:57:00.651Z,16.45
2023-12-05T23:00:09.384Z,17.49
2023-12-05T23:03:15.980Z,17.01
2023-12-05T23:06:23.776Z,17.28
2023-12-05T23:09:30.007Z,16.73
2023-12-05T23:12:36.772Z,17.56
2023-12-05T23:15:43.545Z,16.10
2023-12-05T23:18:51.796Z,15.89
2023-12-05T23:22:00.000Z,16.61
2023-12-05T23:25:07.349Z,15.54
2023-12-05T23:28:18.697Z,16.91
2023-12-05T23:31:28.780Z,16.94
2023-12-05T23:34:35.799Z,16.88
2023-12-05T23:37:43.893Z,17.26
2023-12-05T23:40:50.341Z,16.06
2023-12-05T23:43:56.824Z,16.13
2023-12-05T23:47:03.318Z,16.79
2023-12-05T23:50:10.517Z,15.78
2023-12-05T23:53:18.151Z,16.97
2023-12-05T23:56:24.759Z,16.00
2023-12-05T23:59:31.403Z,15.61
